createdAt,value
2022-07-30T00:00:25.153Z,100844.66
2022-07-30T00:02:52.565Z,100835.03
2022-07-30T00:05:19.627Z,100843.25
2022-07-30T00:07:46.286Z,100828.22
2022-07-30T00:10:13.034Z,100835.78
2022-07-30T00:12:39.859Z,100827.00
2022-07-30T00:15:07.283Z,100831.81
2022-07-30T00:17:33.994Z,100832.94
2022-07-30T00:20:01.335Z,100838.72
2022-07-30T00:22:30.924Z,100829.91
2022-07-30T00:24:57.660Z,100808.78
2022-07-30T00:27:24.398Z,100823.31
2022-07-30T00:29:51.157Z,100800.81
2022-07-30T00:32:17.896Z,100809.91
2022-07-30T00:34:44.652Z,100812.94
2022-07-30T00:37:11.377Z,100803.94
2022-07-30T00:39:38.337Z,100823.31
2022-07-30T00:42:05.113Z,100813.88
2022-07-30T00:44:31.832Z,100816.91
2022-07-30T00:46:59.232Z,100800.56
2022-07-30T00:49:27.136Z,100807.34
2022-07-30T00:51:54.203Z,100801.59
2022-07-30T00:54:21.661Z,100794.34
2022-07-30T00:56:48.994Z,100789.50
2022-07-30T00:59:16.000Z,100803.53
2022-07-30T01:01:42.645Z,100797.78
2022-07-30T01:04:11.993Z,100779.31
2022-07-30T01:06:39.934Z,100767.34
2022-07-30T01:09:07.584Z,100786.19
2022-07-30T01:11:38.999Z,100779.31
2022-07-30T01:14:07.752Z,100770.06
2022-07-30T01:16:36.432Z,100771.19
2022-07-30T01:19:28.154Z,100772.03
2022-07-30T01:22:04.165Z,100756.06
2022-07-30T01:24:38.363Z,100767.84
2022-07-30T01:27:07.757Z,100765.72
2022-07-30T01:29:36.315Z,100760.66
2022-07-30T01:32:04.827Z,100740.44
2022-07-30T01:34:34.551Z,100741.50
2022-07-30T01:37:04.014Z,100738.44
2022-07-30T01:39:32.155Z,100730.88
2022-07-30T01:42:00.696Z,100733.56
2022-07-30T01:44:29.052Z,100730.97
2022-07-30T01:46:57.013Z,100712.31
2022-07-30T01:49:26.065Z,100711.72
2022-07-30T01:51:54.884Z,100717.19
2022-07-30T01:54:24.202Z,100709.50
2022-07-30T01:56:55.346Z,100694.25
2022-07-30T01:59:24.485Z,100712.84
2022-07-30T02:01:51.446Z,100701.38
2022-07-30T02:04:18.376Z,100704.81
2022-07-30T02:07:02.062Z,100707.75
2022-07-30T02:09:36.321Z,100695.78
2022-07-30T02:12:24.044Z,100709.81
2022-07-30T02:14:56.994Z,100706.31
2022-07-30T02:17:39.527Z,100713.56
2022-07-30T02:20:10.051Z,100653.84
2022-07-30T02:22:39.937Z,100716.22
2022-07-30T02:25:09.199Z,100646.94
2022-07-30T02:27:38.991Z,100652.22
2022-07-30T02:30:07.896Z,100669.16
2022-07-30T02:32:37.786Z,100662.78
2022-07-30T02:35:14.296Z,100692.34
2022-07-30T02:37:43.759Z,100702.72
2022-07-30T02:40:15.978Z,100701.16
2022-07-30T02:42:45.848Z,100693.91
2022-07-30T02:45:13.224Z,100691.56
2022-07-30T02:47:41.133Z,100695.88
2022-07-30T02:50:10.001Z,100701.28
2022-07-30T02:52:40.499Z,100691.59
2022-07-30T02:55:10.019Z,100692.59
2022-07-30T02:57:43.299Z,100680.44
2022-07-30T03:00:11.999Z,100687.03
2022-07-30T03:02:40.815Z,100676.94
2022-07-30T03:05:11.868Z,100687.06
2022-07-30T03:07:40.551Z,100689.13
2022-07-30T03:10:08.102Z,100688.47
2022-07-30T03:12:37.661Z,100677.06
2022-07-30T03:15:05.056Z,100677.34
2022-07-30T03:17:38.448Z,100678.56
2022-07-30T03:20:09.505Z,100681.97
2022-07-30T03:22:43.339Z,100660.84
2022-07-30T03:25:12.926Z,100646.78
2022-07-30T03:27:40.530Z,100659.22
2022-07-30T03:30:08.330Z,100663.31
2022-07-30T03:32:37.060Z,100669.41
2022-07-30T03:35:06.667Z,100644.19
2022-07-30T03:37:40.453Z,100638.75
2022-07-30T03:40:08.438Z,100637.06
2022-07-30T03:42:36.273Z,100631.41
2022-07-30T03:45:07.754Z,100637.06
2022-07-30T03:47:38.855Z,100628.50
2022-07-30T03:50:06.596Z,100617.44
2022-07-30T03:52:35.708Z,100636.78
2022-07-30T03:55:04.060Z,100631.41
2022-07-30T03:57:31.067Z,100625.09
2022-07-30T03:59:57.816Z,100625.38
2022-07-30T04:02:24.862Z,100626.66
2022-07-30T04:04:51.670Z,100621.28
2022-07-30T04:07:18.570Z,100622.22
2022-07-30T04:09:45.283Z,100614.31
2022-07-30T04:12:14.065Z,100605.16
2022-07-30T04:14:43.250Z,100605.06
2022-07-30T04:17:15.397Z,100598.28
2022-07-30T04:19:53.342Z,100602.16
2022-07-30T04:22:34.150Z,100613.16
2022-07-30T04:25:02.781Z,100600.63
2022-07-30T04:27:32.034Z,100592.88
2022-07-30T04:29:58.945Z,100595.25
2022-07-30T04:32:26.060Z,100596.06
2022-07-30T04:34:55.494Z,100610.53
2022-07-30T04:37:24.973Z,100591.03
2022-07-30T04:39:55.142Z,100592.44
2022-07-30T04:42:22.507Z,100608.53
2022-07-30T04:44:49.955Z,100599.69
2022-07-30T04:47:17.578Z,100597.72
2022-07-30T04:49:45.392Z,100589.13
2022-07-30T04:52:13.511Z,100597.97
2022-07-30T04:54:57.886Z,100606.56
2022-07-30T04:57:26.645Z,100604.16
2022-07-30T04:59:53.566Z,100591.69
2022-07-30T05:02:22.582Z,100608.66
2022-07-30T05:04:50.241Z,100589.97
2022-07-30T05:07:19.103Z,100589.41
2022-07-30T05:09:49.036Z,100587.16
2022-07-30T05:12:16.190Z,100583.69
2022-07-30T05:14:47.918Z,100586.09
2022-07-30T05:17:14.956Z,100587.78
2022-07-30T05:19:41.652Z,100583.38
2022-07-30T05:22:08.385Z,100583.38
2022-07-30T05:24:35.033Z,100571.25
2022-07-30T05:27:02.356Z,100590.72
2022-07-30T05:29:29.313Z,100585.00
2022-07-30T05:31:56.819Z,100584.34
2022-07-30T05:34:29.429Z,100590.38
2022-07-30T05:36:56.122Z,100580.00
2022-07-30T05:39:22.837Z,100581.78
2022-07-30T05:41:49.555Z,100581.88
2022-07-30T05:44:19.657Z,100592.59
2022-07-30T05:46:49.313Z,100580.66
2022-07-30T05:49:16.113Z,100581.31
2022-07-30T05:51:43.294Z,100560.19
2022-07-30T05:54:11.475Z,100563.69
2022-07-30T05:56:38.430Z,100582.16
2022-07-30T05:59:05.366Z,100569.63
2022-07-30T06:01:32.026Z,100563.69
2022-07-30T06:03:58.730Z,100581.88
2022-07-30T06:06:25.360Z,100567.38
2022-07-30T06:08:52.069Z,100570.66
2022-07-30T06:11:18.944Z,100569.75
2022-07-30T06:13:45.670Z,100537.94
2022-07-30T06:16:12.490Z,100529.38
2022-07-30T06:18:39.231Z,100527.56
2022-07-30T06:21:06.330Z,100572.06
2022-07-30T06:23:33.075Z,100524.66
2022-07-30T06:25:59.884Z,100576.22
2022-07-30T06:28:42.070Z,100546.78
2022-07-30T06:31:08.869Z,100527.47
2022-07-30T06:33:35.595Z,100563.19
2022-07-30T06:36:02.596Z,100547.25
2022-07-30T06:38:29.429Z,100525.50
2022-07-30T06:41:01.977Z,100546.91
2022-07-30T06:43:29.784Z,100580.75
2022-07-30T06:45:56.572Z,100582.38
2022-07-30T06:48:23.428Z,100571.41
2022-07-30T06:50:50.284Z,100572.06
2022-07-30T06:53:17.078Z,100552.28
2022-07-30T06:55:43.876Z,100555.56
2022-07-30T06:58:10.612Z,100564.72
2022-07-30T07:00:37.330Z,100579.28
2022-07-30T07:03:07.441Z,100542.03
2022-07-30T07:05:36.827Z,100530.34
2022-07-30T07:08:03.697Z,100510.16
2022-07-30T07:10:30.508Z,100537.44
2022-07-30T07:12:57.239Z,100544.19
2022-07-30T07:15:36.978Z,100526.16
2022-07-30T07:18:05.416Z,100558.06
2022-07-30T07:20:32.902Z,100578.66
2022-07-30T07:22:59.949Z,100557.19
2022-07-30T07:25:26.986Z,100558.88
2022-07-30T07:28:11.660Z,100539.38
2022-07-30T07:30:41.968Z,100534.28
2022-07-30T07:33:09.332Z,100562.69
2022-07-30T07:35:48.457Z,100516.63
2022-07-30T07:38:18.070Z,100567.75
2022-07-30T07:40:45.118Z,100535.63
2022-07-30T07:43:11.850Z,100536.44
2022-07-30T07:45:39.372Z,100522.00
2022-07-30T07:48:06.631Z,100549.31
2022-07-30T07:50:33.769Z,100538.38
2022-07-30T07:53:00.910Z,100570.41
2022-07-30T07:55:27.749Z,100523.53
2022-07-30T07:57:54.566Z,100521.66
2022-07-30T08:00:21.926Z,100482.00
2022-07-30T08:02:49.212Z,100442.81
2022-07-30T08:05:16.545Z,100525.25
2022-07-30T08:07:44.344Z,100428.25
2022-07-30T08:10:14.055Z,100514.22
2022-07-30T08:12:41.079Z,100486.19
2022-07-30T08:15:09.575Z,100497.97
2022-07-30T08:17:43.956Z,100537.81
2022-07-30T08:20:12.154Z,100507.16
2022-07-30T08:22:39.405Z,100478.63
2022-07-30T08:25:06.583Z,100503.00
2022-07-30T08:27:33.632Z,100472.97
2022-07-30T08:30:10.204Z,100504.72
2022-07-30T08:32:37.686Z,100508.94
2022-07-30T08:35:06.002Z,100472.97
2022-07-30T08:37:34.320Z,100492.97
2022-07-30T08:40:01.142Z,100469.16
2022-07-30T08:42:28.244Z,100486.28
2022-07-30T08:44:56.671Z,100522.38
2022-07-30T08:47:31.294Z,100453.56
2022-07-30T08:50:04.553Z,100518.69
2022-07-30T08:52:33.590Z,100515.81
2022-07-30T08:55:01.145Z,100502.50
2022-07-30T08:57:32.952Z,100529.78
2022-07-30T09:00:01.825Z,100507.34
2022-07-30T09:02:34.192Z,100486.59
2022-07-30T09:05:03.056Z,100418.16
2022-07-30T09:07:30.022Z,100537.47
2022-07-30T09:09:57.028Z,100511.72
2022-07-30T09:12:41.786Z,100526.03
2022-07-30T09:15:20.514Z,100464.38
2022-07-30T09:17:54.937Z,100521.00
2022-07-30T09:20:24.381Z,100528.94
2022-07-30T09:22:54.394Z,100481.72
2022-07-30T09:25:41.514Z,100497.13
2022-07-30T09:28:16.184Z,100537.34
2022-07-30T09:30:56.268Z,100537.13
2022-07-30T09:33:43.435Z,100541.66
2022-07-30T09:36:14.240Z,100529.88
2022-07-30T09:38:52.209Z,100517.06
2022-07-30T09:41:40.444Z,100512.38
2022-07-30T09:44:07.937Z,100512.03
2022-07-30T09:46:49.287Z,100505.88
2022-07-30T09:49:18.571Z,100500.59
2022-07-30T09:51:55.945Z,100519.91
2022-07-30T09:54:52.801Z,100496.59
2022-07-30T09:57:26.046Z,100508.38
2022-07-30T09:59:59.943Z,100449.63
2022-07-30T10:02:34.061Z,100375.44
2022-07-30T10:05:14.460Z,100485.72
2022-07-30T10:07:52.590Z,100498.50
2022-07-30T10:10:25.500Z,100471.28
2022-07-30T10:12:57.173Z,100462.16
2022-07-30T10:15:29.052Z,100421.22
2022-07-30T10:17:57.202Z,100501.50
2022-07-30T10:20:24.462Z,100455.44
2022-07-30T10:22:53.138Z,100418.13
2022-07-30T10:25:23.196Z,100427.25
2022-07-30T10:28:00.557Z,100445.19
2022-07-30T10:30:31.109Z,100466.25
2022-07-30T10:33:00.235Z,100496.44
2022-07-30T10:35:41.734Z,100469.34
2022-07-30T10:38:14.740Z,100437.09
2022-07-30T10:40:50.499Z,100482.00
2022-07-30T10:43:45.329Z,100469.78
2022-07-30T10:46:28.619Z,100430.16
2022-07-30T10:48:57.636Z,100445.78
2022-07-30T10:51:43.899Z,100486.19
2022-07-30T10:54:40.315Z,100482.56
2022-07-30T10:57:15.001Z,100474.69
2022-07-30T10:59:49.709Z,100425.88
2022-07-30T11:02:19.731Z,100477.81
2022-07-30T11:04:59.028Z,100420.88
2022-07-30T11:07:29.251Z,100477.41
2022-07-30T11:10:08.963Z,100394.38
2022-07-30T11:12:56.034Z,100352.69
2022-07-30T11:15:23.677Z,100443.31
2022-07-30T11:18:12.047Z,100420.31
2022-07-30T11:20:41.168Z,100452.25
2022-07-30T11:23:19.116Z,100461.19
2022-07-30T11:25:51.804Z,100447.25
2022-07-30T11:28:39.800Z,100450.09
2022-07-30T11:31:56.455Z,100414.34
2022-07-30T11:34:27.942Z,100454.22
2022-07-30T11:37:34.414Z,100457.41
2022-07-30T11:40:07.582Z,100402.81
2022-07-30T11:43:14.078Z,100457.13
2022-07-30T11:45:41.495Z,100436.94
2022-07-30T11:48:13.450Z,100423.06
2022-07-30T11:50:41.147Z,100458.94
2022-07-30T11:53:11.152Z,100451.88
2022-07-30T11:55:43.794Z,100406.16
2022-07-30T11:58:24.270Z,100459.31
2022-07-30T12:00:51.260Z,100428.47
2022-07-30T12:03:20.313Z,100404.41
2022-07-30T12:05:52.662Z,100414.63
2022-07-30T12:08:31.623Z,100444.59
2022-07-30T12:11:02.460Z,100431.19
2022-07-30T12:13:44.587Z,100463.31
2022-07-30T12:16:18.478Z,100451.50
2022-07-30T12:18:47.151Z,100470.84
2022-07-30T12:21:17.747Z,100461.31
2022-07-30T12:24:02.877Z,100469.72
2022-07-30T12:26:32.466Z,100448.38
2022-07-30T12:29:01.844Z,100450.44
2022-07-30T12:31:29.345Z,100455.97
2022-07-30T12:33:58.209Z,100420.44
2022-07-30T12:36:31.520Z,100438.41
2022-07-30T12:38:58.861Z,100441.41
2022-07-30T12:41:42.737Z,100457.06
2022-07-30T12:44:10.237Z,100424.03
2022-07-30T12:46:41.442Z,100459.94
2022-07-30T12:49:22.018Z,100454.41
2022-07-30T12:51:59.874Z,100468.81
2022-07-30T12:54:28.146Z,100468.84
2022-07-30T12:57:06.468Z,100489.91
2022-07-30T12:59:38.988Z,100480.44
2022-07-30T13:02:06.011Z,100478.06
2022-07-30T13:04:36.079Z,100437.81
2022-07-30T13:07:12.659Z,100428.91
2022-07-30T13:09:43.112Z,100416.06
2022-07-30T13:12:14.461Z,100446.84
2022-07-30T13:14:41.232Z,100445.75
2022-07-30T13:17:12.177Z,100441.81
2022-07-30T13:19:41.889Z,100467.81
2022-07-30T13:22:09.067Z,100447.50
2022-07-30T13:24:39.407Z,100460.63
2022-07-30T13:27:06.413Z,100473.84
2022-07-30T13:29:33.605Z,100456.63
2022-07-30T13:32:00.435Z,100469.47
2022-07-30T13:34:27.209Z,100501.22
2022-07-30T13:36:54.000Z,100449.78
2022-07-30T13:39:20.804Z,100432.03
2022-07-30T13:41:47.648Z,100447.56
2022-07-30T13:44:14.408Z,100443.38
2022-07-30T13:46:41.503Z,100440.31
2022-07-30T13:49:08.608Z,100470.88
2022-07-30T13:51:35.372Z,100483.63
2022-07-30T13:54:04.500Z,100479.84
2022-07-30T13:56:40.568Z,100481.69
2022-07-30T13:59:07.854Z,100460.09
2022-07-30T14:01:36.036Z,100440.13
2022-07-30T14:04:02.872Z,100464.09
2022-07-30T14:06:29.710Z,100494.78
2022-07-30T14:08:56.490Z,100507.19
2022-07-30T14:11:23.250Z,100464.09
2022-07-30T14:13:49.939Z,100496.56
2022-07-30T14:16:43.786Z,100502.13
2022-07-30T14:19:23.045Z,100500.13
2022-07-30T14:21:52.762Z,100463.31
2022-07-30T14:24:20.234Z,100491.28
2022-07-30T14:26:47.275Z,100496.22
2022-07-30T14:29:17.327Z,100532.47
2022-07-30T14:31:44.229Z,100505.53
2022-07-30T14:34:13.171Z,100483.63
2022-07-30T14:36:39.902Z,100484.91
2022-07-30T14:39:09.190Z,100502.72
2022-07-30T14:41:37.358Z,100431.69
2022-07-30T14:44:04.945Z,100478.94
2022-07-30T14:46:32.092Z,100515.81
2022-07-30T14:48:58.872Z,100491.38
2022-07-30T14:51:26.747Z,100522.34
2022-07-30T14:53:57.415Z,100512.06
2022-07-30T14:56:25.313Z,100526.47
2022-07-30T14:58:53.179Z,100487.22
2022-07-30T15:01:20.108Z,100505.53
2022-07-30T15:03:47.818Z,100509.72
2022-07-30T15:06:15.621Z,100541.16
2022-07-30T15:08:43.360Z,100509.28
2022-07-30T15:11:10.174Z,100480.41
2022-07-30T15:13:38.557Z,100515.00
2022-07-30T15:16:07.775Z,100495.91
2022-07-30T15:18:34.487Z,100510.44
2022-07-30T15:21:01.388Z,100507.25
2022-07-30T15:23:28.252Z,100538.44
2022-07-30T15:25:55.119Z,100537.22
2022-07-30T15:28:22.225Z,100525.72
2022-07-30T15:30:49.001Z,100522.84
2022-07-30T15:33:15.918Z,100500.44
2022-07-30T15:35:42.661Z,100527.75
2022-07-30T15:38:09.442Z,100526.13
2022-07-30T15:40:36.195Z,100528.50
2022-07-30T15:43:05.093Z,100538.56
2022-07-30T15:45:38.036Z,100527.72
2022-07-30T15:48:24.958Z,100522.34
2022-07-30T15:51:00.199Z,100556.72
2022-07-30T15:53:26.901Z,100565.47
2022-07-30T15:55:53.672Z,100576.09
2022-07-30T15:58:20.413Z,100578.84
2022-07-30T16:00:47.313Z,100587.03
2022-07-30T16:03:14.180Z,100578.34
2022-07-30T16:05:52.212Z,100575.41
2022-07-30T16:08:20.555Z,100585.22
2022-07-30T16:10:48.156Z,100589.16
2022-07-30T16:13:15.001Z,100541.25
2022-07-30T16:15:41.735Z,100555.22
2022-07-30T16:18:08.551Z,100563.03
2022-07-30T16:20:35.267Z,100606.41
2022-07-30T16:23:02.434Z,100573.63
2022-07-30T16:25:29.208Z,100576.03
2022-07-30T16:27:55.946Z,100548.38
2022-07-30T16:30:27.481Z,100573.41
2022-07-30T16:32:56.493Z,100597.81
2022-07-30T16:35:23.535Z,100592.03
2022-07-30T16:37:50.359Z,100574.19
2022-07-30T16:40:17.123Z,100593.19
2022-07-30T16:42:43.936Z,100618.63
2022-07-30T16:45:11.082Z,100619.72
2022-07-30T16:47:38.249Z,100610.97
2022-07-30T16:50:05.630Z,100606.88
2022-07-30T16:52:32.352Z,100587.03
2022-07-30T16:54:59.043Z,100633.31
2022-07-30T16:57:25.719Z,100626.31
2022-07-30T16:59:52.535Z,100608.91
2022-07-30T17:02:19.272Z,100610.00
2022-07-30T17:04:46.090Z,100597.69
2022-07-30T17:07:13.352Z,100631.25
2022-07-30T17:09:40.148Z,100575.28
2022-07-30T17:12:12.157Z,100617.19
2022-07-30T17:14:42.811Z,100641.19
2022-07-30T17:17:14.295Z,100633.19
2022-07-30T17:19:45.868Z,100609.94
2022-07-30T17:22:12.660Z,100622.81
2022-07-30T17:24:40.100Z,100604.97
2022-07-30T17:27:07.152Z,100636.88
2022-07-30T17:29:33.894Z,100623.84
2022-07-30T17:32:00.962Z,100649.88
2022-07-30T17:34:28.011Z,100618.66
2022-07-30T17:36:54.874Z,100598.03
2022-07-30T17:40:04.214Z,100624.38
2022-07-30T17:42:10.758Z,100650.03
2022-07-30T17:44:39.581Z,100645.06
2022-07-30T17:47:11.027Z,100624.34
2022-07-30T17:49:40.727Z,100647.84
2022-07-30T17:52:07.545Z,100634.78
2022-07-30T17:54:34.422Z,100633.25
2022-07-30T17:57:01.115Z,100636.91
2022-07-30T17:59:27.855Z,100628.53
2022-07-30T18:01:55.139Z,100665.56
2022-07-30T18:04:21.898Z,100645.44
2022-07-30T18:06:50.788Z,100643.06
2022-07-30T18:09:17.903Z,100615.16
2022-07-30T18:11:45.273Z,100647.50
2022-07-30T18:14:12.295Z,100666.13
2022-07-30T18:16:39.418Z,100658.25
2022-07-30T18:19:06.165Z,100650.78
2022-07-30T18:21:33.314Z,100647.75
2022-07-30T18:24:00.064Z,100662.28
2022-07-30T18:26:27.133Z,100685.59
2022-07-30T18:28:53.894Z,100662.75
2022-07-30T18:31:20.732Z,100664.94
2022-07-30T18:33:49.399Z,100689.47
2022-07-30T18:36:16.170Z,100681.13
2022-07-30T18:38:46.432Z,100633.84
2022-07-30T18:41:13.251Z,100659.16
2022-07-30T18:43:48.215Z,100709.53
2022-07-30T18:46:15.871Z,100690.78
2022-07-30T18:48:42.753Z,100688.03
2022-07-30T18:51:13.685Z,100691.53
2022-07-30T18:53:42.063Z,100728.03
2022-07-30T18:56:09.249Z,100708.59
2022-07-30T18:58:38.097Z,100724.38
2022-07-30T19:01:05.392Z,100729.69
2022-07-30T19:03:32.358Z,100729.97
2022-07-30T19:05:59.295Z,100733.94
2022-07-30T19:08:56.823Z,100726.94
2022-07-30T19:11:32.087Z,100742.38
2022-07-30T19:13:59.200Z,100740.34
2022-07-30T19:16:26.460Z,100724.03
2022-07-30T19:18:53.141Z,100723.25
2022-07-30T19:21:19.913Z,100731.97
2022-07-30T19:23:46.634Z,100719.16
2022-07-30T19:26:14.677Z,100746.66
2022-07-30T19:28:41.479Z,100780.72
2022-07-30T19:31:08.372Z,100786.34
2022-07-30T19:33:35.081Z,100765.78
2022-07-30T19:36:02.925Z,100767.19
2022-07-30T19:38:29.811Z,100786.78
2022-07-30T19:40:57.204Z,100774.91
2022-07-30T19:43:24.592Z,100777.28
2022-07-30T19:45:53.864Z,100803.13
2022-07-30T19:48:29.168Z,100809.38
2022-07-30T19:51:00.541Z,100783.72
2022-07-30T19:53:27.905Z,100812.25
2022-07-30T19:55:58.714Z,100824.28
2022-07-30T19:58:26.002Z,100837.75
2022-07-30T20:00:53.154Z,100815.69
2022-07-30T20:03:26.086Z,100843.28
2022-07-30T20:05:59.294Z,100835.25
2022-07-30T20:08:27.133Z,100836.28
2022-07-30T20:10:57.544Z,100822.16
2022-07-30T20:13:45.095Z,100840.81
2022-07-30T20:16:12.954Z,100841.41
2022-07-30T20:18:40.053Z,100836.56
2022-07-30T20:21:12.618Z,100877.19
2022-07-30T20:23:41.777Z,100853.13
2022-07-30T20:26:13.073Z,100873.34
2022-07-30T20:28:52.875Z,100862.97
2022-07-30T20:31:20.497Z,100874.22
2022-07-30T20:33:49.517Z,100888.84
2022-07-30T20:36:18.140Z,100888.72
2022-07-30T20:38:47.355Z,100869.56
2022-07-30T20:41:15.469Z,100899.28
2022-07-30T20:43:52.277Z,100898.31
2022-07-30T20:46:23.299Z,100876.38
2022-07-30T20:48:51.327Z,100888.97
2022-07-30T20:51:20.301Z,100888.78
2022-07-30T20:53:47.459Z,100880.44
2022-07-30T20:56:19.342Z,100898.06
2022-07-30T20:58:47.472Z,100898.94
2022-07-30T21:01:17.647Z,100919.09
2022-07-30T21:03:47.657Z,100912.88
2022-07-30T21:06:15.079Z,100920.97
2022-07-30T21:08:41.733Z,100917.63
2022-07-30T21:11:09.726Z,100924.59
2022-07-30T21:13:55.490Z,100937.34
2022-07-30T21:16:23.772Z,100917.31
2022-07-30T21:18:50.866Z,100939.53
2022-07-30T21:21:30.748Z,100954.34
2022-07-30T21:24:05.812Z,100942.78
2022-07-30T21:26:41.719Z,100946.38
2022-07-30T21:29:09.347Z,100915.97
2022-07-30T21:31:59.063Z,100930.88
2022-07-30T21:34:26.393Z,100936.38
2022-07-30T21:36:54.469Z,100939.84
2022-07-30T21:39:28.838Z,100934.66
2022-07-30T21:41:56.312Z,100925.84
2022-07-30T21:44:23.835Z,100936.66
2022-07-30T21:46:50.589Z,100941.44
2022-07-30T21:49:17.524Z,100949.84
2022-07-30T21:51:44.630Z,100954.47
2022-07-30T21:54:11.424Z,100953.16
2022-07-30T21:56:41.495Z,100913.22
2022-07-30T21:59:09.064Z,100954.50
2022-07-30T22:01:39.321Z,100926.91
2022-07-30T22:04:14.656Z,100946.38
2022-07-30T22:06:46.894Z,100945.44
2022-07-30T22:09:19.062Z,100949.94
2022-07-30T22:12:01.349Z,100905.53
2022-07-30T22:14:29.108Z,100905.19
2022-07-30T22:16:56.518Z,100944.38
2022-07-30T22:19:23.886Z,100932.66
2022-07-30T22:21:52.921Z,100922.69
2022-07-30T22:24:29.680Z,100971.41
2022-07-30T22:27:01.632Z,100953.19
2022-07-30T22:29:38.255Z,100953.09
2022-07-30T22:32:07.957Z,100969.16
2022-07-30T22:34:35.000Z,100969.97
2022-07-30T22:37:01.667Z,100971.66
2022-07-30T22:39:32.292Z,100958.09
2022-07-30T22:42:16.157Z,100976.06
2022-07-30T22:44:46.061Z,100962.06
2022-07-30T22:47:20.989Z,100967.50
2022-07-30T22:49:55.300Z,100957.94
2022-07-30T22:52:30.922Z,100956.31
2022-07-30T22:55:10.341Z,100959.16
2022-07-30T22:57:40.260Z,100969.88
2022-07-30T23:00:11.058Z,100979.88
2022-07-30T23:02:40.405Z,100984.66
2022-07-30T23:05:10.037Z,100978.22
2022-07-30T23:07:39.672Z,100962.19
2022-07-30T23:10:17.195Z,100977.47
2022-07-30T23:12:46.655Z,100949.59
2022-07-30T23:15:13.699Z,100969.72
2022-07-30T23:17:40.893Z,100972.59
2022-07-30T23:20:10.162Z,100968.59
2022-07-30T23:22:37.480Z,100995.81
2022-07-30T23:25:10.309Z,100988.88
2022-07-30T23:27:37.580Z,100989.50
2022-07-30T23:30:04.767Z,100965.97
2022-07-30T23:32:32.246Z,100973.81
2022-07-30T23:34:59.101Z,100925.09
2022-07-30T23:37:25.833Z,100965.81
2022-07-30T23:39:53.084Z,100968.78
2022-07-30T23:42:19.830Z,100973.66
2022-07-30T23:44:46.594Z,100972.38
2022-07-30T23:47:13.251Z,100981.66
2022-07-30T23:49:39.897Z,100979.41
2022-07-30T23:52:06.598Z,100978.59
2022-07-30T23:54:33.287Z,100972.59
2022-07-30T23:57:00.160Z,100981.06
2022-07-30T23:59:40.350Z,100977.06
